createdAt,value
2019-03-25T00:00:50.328Z,73.28
2019-03-25T00:01:50.331Z,73.88
2019-03-25T00:02:50.316Z,73.67
2019-03-25T00:03:50.316Z,73.80
2019-03-25T00:04:50.283Z,73.15
2019-03-25T00:05:50.319Z,73.67
2019-03-25T00:06:50.268Z,73.80
2019-03-25T00:07:50.240Z,73.91
2019-03-25T00:09:03.213Z,74.22
2019-03-25T00:09:51.229Z,73.80
2019-03-25T00:10:50.223Z,74.11
2019-03-25T00:11:50.230Z,73.70
2019-03-25T00:12:50.191Z,73.91
2019-03-25T00:13:50.179Z,73.70
2019-03-25T00:14:50.171Z,73.80
2019-03-25T00:15:50.218Z,74.22
2019-03-25T00:16:50.147Z,74.74
2019-03-25T00:17:50.146Z,74.32
2019-03-25T00:18:50.120Z,73.67
2019-03-25T00:19:50.126Z,73.80
2019-03-25T00:20:50.106Z,73.39
2019-03-25T00:21:50.154Z,73.88
2019-03-25T00:22:50.104Z,74.29
2019-03-25T00:23:50.085Z,72.77
2019-03-25T00:24:50.065Z,73.57
2019-03-25T00:25:50.062Z,73.57
2019-03-25T00:26:50.046Z,73.67
2019-03-25T00:27:50.055Z,73.46
2019-03-25T00:28:50.051Z,72.32
2019-03-25T00:29:50.014Z,72.42
2019-03-25T00:30:50.008Z,72.94
2019-03-25T00:31:50.007Z,72.53
2019-03-25T00:32:50.012Z,72.63
2019-03-25T00:33:49.995Z,72.08
2019-03-25T00:34:49.977Z,72.29
2019-03-25T00:35:49.944Z,72.19
2019-03-25T00:36:49.941Z,71.98
2019-03-25T00:37:49.978Z,71.15
2019-03-25T00:38:49.937Z,71.56
2019-03-25T00:39:49.929Z,71.36
2019-03-25T00:40:49.910Z,71.67
2019-03-25T00:41:49.902Z,71.88
2019-03-25T00:42:49.914Z,71.63
2019-03-25T00:43:49.897Z,71.67
2019-03-25T00:44:49.863Z,71.53
2019-03-25T00:45:49.852Z,71.84
2019-03-25T00:46:49.867Z,71.15
2019-03-25T00:47:49.849Z,71.33
2019-03-25T00:48:49.859Z,70.81
2019-03-25T00:49:49.841Z,71.88
2019-03-25T00:50:49.819Z,71.88
2019-03-25T00:51:49.790Z,71.67
2019-03-25T00:52:49.796Z,71.84
2019-03-25T00:53:49.764Z,71.63
2019-03-25T00:54:50.408Z,71.88
2019-03-25T00:55:49.744Z,71.67
2019-03-25T00:56:49.747Z,71.84
2019-03-25T00:57:49.734Z,71.73
2019-03-25T00:58:49.746Z,71.22
2019-03-25T00:59:49.708Z,71.67
2019-03-25T01:00:49.713Z,71.63
2019-03-25T01:01:49.716Z,71.56
2019-03-25T01:02:49.677Z,71.84
2019-03-25T01:03:49.653Z,71.63
2019-03-25T01:04:49.655Z,72.05
2019-03-25T01:05:49.644Z,71.98
2019-03-25T01:06:49.646Z,71.94
2019-03-25T01:07:49.622Z,72.08
2019-03-25T01:08:49.610Z,72.60
2019-03-25T01:09:49.593Z,72.71
2019-03-25T01:10:49.594Z,71.77
2019-03-25T01:11:49.615Z,71.98
2019-03-25T01:12:49.589Z,72.60
2019-03-25T01:13:49.548Z,72.60
2019-03-25T01:14:49.579Z,72.50
2019-03-25T01:15:49.546Z,72.39
2019-03-25T01:16:49.537Z,72.60
2019-03-25T01:17:49.509Z,72.50
2019-03-25T01:18:49.515Z,72.60
2019-03-25T01:19:49.499Z,72.81
2019-03-25T01:20:49.499Z,72.94
2019-03-25T01:21:49.502Z,73.32
2019-03-25T01:22:49.481Z,73.43
2019-03-25T01:23:49.456Z,72.94
2019-03-25T01:25:00.970Z,73.32
2019-03-25T01:25:50.453Z,73.25
2019-03-25T01:26:49.426Z,73.15
2019-03-25T01:27:49.427Z,73.88
2019-03-25T01:28:49.419Z,73.36
2019-03-25T01:29:49.390Z,73.77
2019-03-25T01:30:49.369Z,73.77
2019-03-25T01:31:49.403Z,73.46
2019-03-25T01:32:49.389Z,73.77
2019-03-25T01:33:49.362Z,73.91
2019-03-25T01:34:49.389Z,73.18
2019-03-25T01:35:49.323Z,73.70
2019-03-25T01:36:49.330Z,73.70
2019-03-25T01:37:49.330Z,73.70
2019-03-25T01:38:49.289Z,73.91
2019-03-25T01:39:49.304Z,74.43
2019-03-25T01:40:49.285Z,74.63
2019-03-25T01:41:49.318Z,74.32
2019-03-25T01:42:49.277Z,74.63
2019-03-25T01:43:49.248Z,74.43
2019-03-25T01:44:49.235Z,74.26
2019-03-25T01:45:49.227Z,74.67
2019-03-25T01:46:49.211Z,74.67
2019-03-25T01:47:49.225Z,75.09
2019-03-25T01:48:49.206Z,74.88
2019-03-25T01:49:49.194Z,75.40
2019-03-25T01:50:49.172Z,75.40
2019-03-25T01:51:49.160Z,75.64
2019-03-25T01:52:49.179Z,75.60
2019-03-25T01:53:49.134Z,75.74
2019-03-25T01:54:49.149Z,75.50
2019-03-25T01:55:49.118Z,75.74
2019-03-25T01:56:49.113Z,75.85
2019-03-25T01:57:49.130Z,75.64
2019-03-25T01:58:49.084Z,75.85
2019-03-25T01:59:49.077Z,75.95
2019-03-25T02:00:49.074Z,75.50
2019-03-25T02:01:49.059Z,75.74
2019-03-25T02:02:49.052Z,76.12
2019-03-25T02:03:49.081Z,75.81
2019-03-25T02:04:49.018Z,76.26
2019-03-25T02:05:49.009Z,76.12
2019-03-25T02:06:49.009Z,76.37
2019-03-25T02:07:48.997Z,76.57
2019-03-25T02:08:49.013Z,76.16
2019-03-25T02:09:48.959Z,76.37
2019-03-25T02:10:48.955Z,76.37
2019-03-25T02:11:48.957Z,76.26
2019-03-25T02:12:48.955Z,76.47
2019-03-25T02:13:48.929Z,76.16
2019-03-25T02:14:48.964Z,75.95
2019-03-25T02:15:48.903Z,76.06
2019-03-25T02:16:48.905Z,76.26
2019-03-25T02:17:48.899Z,76.16
2019-03-25T02:18:48.875Z,76.57
2019-03-25T02:19:48.860Z,76.16
2019-03-25T02:20:48.882Z,76.16
2019-03-25T02:21:48.844Z,76.37
2019-03-25T02:22:48.993Z,75.95
2019-03-25T02:23:48.851Z,76.06
2019-03-25T02:24:48.803Z,75.85
2019-03-25T02:25:48.833Z,76.06
2019-03-25T02:26:48.788Z,75.54
2019-03-25T02:27:48.779Z,75.95
2019-03-25T02:28:48.767Z,75.95
2019-03-25T02:29:48.751Z,76.16
2019-03-25T02:30:48.767Z,76.29
2019-03-25T02:31:48.725Z,76.16
2019-03-25T02:32:48.718Z,76.37
2019-03-25T02:33:48.711Z,76.06
2019-03-25T02:34:48.694Z,76.09
2019-03-25T02:35:48.712Z,75.98
2019-03-25T02:36:48.689Z,76.61
2019-03-25T02:37:48.698Z,76.81
2019-03-25T02:38:48.652Z,76.81
2019-03-25T02:39:48.647Z,76.61
2019-03-25T02:40:48.644Z,76.61
2019-03-25T02:41:48.664Z,77.02
2019-03-25T02:42:48.651Z,76.50
2019-03-25T02:43:48.629Z,76.61
2019-03-25T02:44:48.606Z,76.71
2019-03-25T02:45:48.590Z,77.02
2019-03-25T02:46:48.587Z,76.61
2019-03-25T02:47:48.566Z,76.50
2019-03-25T02:48:48.568Z,76.06
2019-03-25T02:49:48.541Z,76.29
2019-03-25T02:50:48.532Z,76.40
2019-03-25T02:51:48.559Z,76.71
2019-03-25T02:52:48.523Z,76.47
2019-03-25T02:53:48.563Z,76.16
2019-03-25T02:54:48.527Z,76.06
2019-03-25T02:55:48.487Z,75.95
2019-03-25T02:56:48.478Z,76.37
2019-03-25T02:57:48.457Z,76.06
2019-03-25T02:58:48.497Z,76.16
2019-03-25T02:59:48.453Z,76.26
2019-03-25T03:00:48.459Z,75.78
2019-03-25T03:01:48.424Z,76.09
2019-03-25T03:02:48.421Z,75.98
2019-03-25T03:03:48.407Z,76.19
2019-03-25T03:04:48.414Z,76.19
2019-03-25T03:05:48.387Z,76.29
2019-03-25T03:06:48.370Z,76.71
2019-03-25T03:07:48.356Z,76.71
2019-03-25T03:08:48.340Z,76.09
2019-03-25T03:09:48.396Z,76.09
2019-03-25T03:10:48.327Z,76.29
2019-03-25T03:11:48.349Z,76.50
2019-03-25T03:12:48.315Z,76.71
2019-03-25T03:13:48.296Z,76.09
2019-03-25T03:14:48.281Z,76.09
2019-03-25T03:15:48.288Z,76.40
2019-03-25T03:16:48.291Z,75.98
2019-03-25T03:17:48.264Z,76.19
2019-03-25T03:18:48.244Z,76.50
2019-03-25T03:19:48.233Z,76.40
2019-03-25T03:20:48.264Z,76.09
2019-03-25T03:21:48.243Z,76.81
2019-03-25T03:22:48.295Z,76.19
2019-03-25T03:23:48.202Z,76.40
2019-03-25T03:24:48.177Z,76.40
2019-03-25T03:25:57.097Z,76.61
2019-03-25T03:26:49.188Z,75.98
2019-03-25T03:27:48.152Z,75.92
2019-03-25T03:28:48.144Z,75.92
2019-03-25T03:29:48.163Z,75.67
2019-03-25T03:30:48.144Z,75.26
2019-03-25T03:31:48.124Z,75.88
2019-03-25T03:32:48.104Z,75.88
2019-03-25T03:33:48.093Z,75.57
2019-03-25T03:34:48.088Z,75.57
2019-03-25T03:35:48.058Z,75.57
2019-03-25T03:36:48.099Z,75.57
2019-03-25T03:37:48.344Z,74.84
2019-03-25T03:38:48.034Z,75.15
2019-03-25T03:39:48.050Z,75.15
2019-03-25T03:40:48.032Z,74.43
2019-03-25T03:41:48.023Z,74.32
2019-03-25T03:42:47.989Z,74.95
2019-03-25T03:43:48.009Z,74.95
2019-03-25T03:44:47.982Z,75.05
2019-03-25T03:45:48.918Z,75.15
2019-03-25T03:46:48.011Z,75.15
2019-03-25T03:47:47.941Z,74.84
2019-03-25T03:48:47.934Z,75.05
2019-03-25T03:49:48.032Z,75.15
2019-03-25T03:50:48.011Z,75.26
2019-03-25T03:51:47.946Z,75.26
2019-03-25T03:52:47.891Z,74.95
2019-03-25T03:53:47.875Z,74.63
2019-03-25T03:54:47.868Z,74.32
2019-03-25T03:55:47.868Z,74.53
2019-03-25T03:56:47.859Z,74.53
2019-03-25T03:57:47.862Z,74.63
2019-03-25T03:58:47.821Z,74.11
2019-03-25T03:59:47.864Z,74.95
2019-03-25T04:00:47.810Z,75.05
2019-03-25T04:01:47.789Z,74.84
2019-03-25T04:02:47.804Z,74.63
2019-03-25T04:03:47.809Z,75.26
2019-03-25T04:04:47.776Z,74.84
2019-03-25T04:05:47.762Z,74.95
2019-03-25T04:06:47.757Z,74.91
2019-03-25T04:07:47.744Z,74.95
2019-03-25T04:08:48.300Z,75.26
2019-03-25T04:09:48.274Z,75.15
2019-03-25T04:10:47.696Z,74.91
2019-03-25T04:11:47.702Z,74.84
2019-03-25T04:12:47.704Z,74.63
2019-03-25T04:13:47.662Z,75.05
2019-03-25T04:14:47.677Z,75.36
2019-03-25T04:15:47.650Z,75.15
2019-03-25T04:16:47.654Z,75.15
2019-03-25T04:17:47.750Z,74.91
2019-03-25T04:18:49.691Z,74.91
2019-03-25T04:19:47.611Z,75.12
2019-03-25T04:20:47.622Z,75.02
2019-03-25T04:21:47.590Z,74.91
2019-03-25T04:22:47.601Z,75.12
2019-03-25T04:23:47.573Z,75.23
2019-03-25T04:24:47.552Z,75.43
2019-03-25T04:25:47.592Z,75.12
2019-03-25T04:26:47.542Z,75.12
2019-03-25T04:27:47.538Z,75.12
2019-03-25T04:28:48.199Z,75.12
2019-03-25T04:29:47.524Z,74.77
2019-03-25T04:30:47.562Z,75.12
2019-03-25T04:31:47.511Z,75.12
2019-03-25T04:32:47.499Z,74.71
2019-03-25T04:33:47.473Z,74.91
2019-03-25T04:34:47.465Z,74.71
2019-03-25T04:35:47.500Z,74.81
2019-03-25T04:36:47.425Z,74.88
2019-03-25T04:37:47.448Z,75.09
2019-03-25T04:38:47.436Z,74.88
2019-03-25T04:39:47.417Z,75.09
2019-03-25T04:40:47.431Z,75.09
2019-03-25T04:41:47.370Z,74.36
2019-03-25T04:42:47.375Z,74.98
2019-03-25T04:43:47.366Z,74.26
2019-03-25T04:44:47.445Z,74.57
2019-03-25T04:45:47.371Z,74.67
2019-03-25T04:46:47.342Z,74.36
2019-03-25T04:47:47.340Z,74.67
2019-03-25T04:48:47.353Z,73.84
2019-03-25T04:49:47.296Z,73.53
2019-03-25T04:50:47.333Z,73.74
2019-03-25T04:51:47.350Z,73.84
2019-03-25T04:52:47.254Z,73.74
2019-03-25T04:53:47.328Z,73.94
2019-03-25T04:54:47.262Z,73.63
2019-03-25T04:55:47.258Z,73.84
2019-03-25T04:56:47.254Z,73.32
2019-03-25T04:57:47.203Z,73.63
2019-03-25T04:58:47.197Z,74.57
2019-03-25T04:59:47.218Z,74.36
2019-03-25T05:00:47.167Z,73.43
2019-03-25T05:01:47.168Z,73.91
2019-03-25T05:02:47.151Z,74.01
2019-03-25T05:03:47.146Z,73.39
2019-03-25T05:04:47.210Z,73.49
2019-03-25T05:05:47.137Z,73.70
2019-03-25T05:06:47.130Z,73.70
2019-03-25T05:07:47.106Z,73.80
2019-03-25T05:08:47.119Z,73.70
2019-03-25T05:09:47.704Z,73.70
2019-03-25T05:10:47.121Z,73.60
2019-03-25T05:11:47.074Z,73.80
2019-03-25T05:12:47.052Z,73.80
2019-03-25T05:13:47.044Z,73.28
2019-03-25T05:14:47.070Z,73.39
2019-03-25T05:15:47.024Z,73.39
2019-03-25T05:16:47.092Z,72.88
2019-03-25T05:17:47.090Z,73.80
2019-03-25T05:18:47.013Z,73.28
2019-03-25T05:19:46.988Z,72.56
2019-03-25T05:20:46.971Z,72.05
2019-03-25T05:21:46.988Z,72.25
2019-03-25T05:22:46.957Z,72.63
2019-03-25T05:23:46.985Z,72.05
2019-03-25T05:24:46.933Z,71.91
2019-03-25T05:25:46.916Z,72.63
2019-03-25T05:26:51.222Z,72.36
2019-03-25T05:27:46.894Z,72.25
2019-03-25T05:28:47.034Z,72.36
2019-03-25T05:29:46.909Z,72.25
2019-03-25T05:30:46.893Z,72.05
2019-03-25T05:31:46.877Z,71.94
2019-03-25T05:32:46.854Z,71.84
2019-03-25T05:33:46.835Z,72.74
2019-03-25T05:34:47.398Z,72.63
2019-03-25T05:35:47.002Z,72.63
2019-03-25T05:36:46.875Z,72.53
2019-03-25T05:37:46.788Z,73.67
2019-03-25T05:38:46.785Z,73.77
2019-03-25T05:39:46.973Z,74.50
2019-03-25T05:40:46.756Z,75.02
2019-03-25T05:41:46.789Z,75.74
2019-03-25T05:42:46.755Z,76.50
2019-03-25T05:43:46.772Z,77.68
2019-03-25T05:44:46.732Z,79.44
2019-03-25T05:45:46.718Z,80.62
2019-03-25T05:46:46.730Z,81.35
2019-03-25T05:47:46.776Z,82.28
2019-03-25T05:48:46.678Z,83.63
2019-03-25T05:49:46.684Z,84.29
2019-03-25T05:50:46.674Z,84.91
2019-03-25T05:51:47.725Z,85.64
2019-03-25T05:52:47.763Z,85.85
2019-03-25T05:53:47.967Z,86.30
2019-03-25T05:54:46.764Z,86.09
2019-03-25T05:55:46.769Z,87.38
2019-03-25T05:56:46.997Z,88.62
2019-03-25T05:57:46.578Z,88.42
2019-03-25T05:58:46.617Z,88.77
2019-03-25T05:59:46.566Z,90.02
2019-03-25T06:00:46.549Z,90.23
2019-03-25T06:01:50.209Z,90.23
2019-03-25T06:02:55.318Z,90.64
2019-03-25T06:03:50.775Z,90.44
2019-03-25T06:04:49.074Z,90.95
2019-03-25T06:05:48.794Z,91.68
2019-03-25T06:06:46.495Z,91.99
2019-03-25T06:07:46.517Z,92.20
2019-03-25T06:08:46.502Z,92.30
2019-03-25T06:09:46.628Z,92.10
2019-03-25T06:10:46.436Z,92.41
2019-03-25T06:11:46.437Z,93.03
2019-03-25T06:12:46.453Z,92.51
2019-03-25T06:13:46.427Z,92.10
2019-03-25T06:14:46.457Z,92.51
2019-03-25T06:15:46.399Z,93.24
2019-03-25T06:16:46.397Z,93.35
2019-03-25T06:17:46.385Z,93.45
2019-03-25T06:18:46.369Z,93.45
2019-03-25T06:19:46.368Z,93.55
2019-03-25T06:20:48.200Z,93.24
2019-03-25T06:21:46.455Z,93.66
2019-03-25T06:22:46.319Z,92.20
2019-03-25T06:23:46.347Z,93.24
2019-03-25T06:24:46.283Z,93.55
2019-03-25T06:25:46.286Z,92.61
2019-03-25T06:26:46.270Z,92.93
2019-03-25T06:27:46.310Z,93.35
2019-03-25T06:28:46.292Z,93.35
2019-03-25T06:29:46.296Z,92.41
2019-03-25T06:30:46.236Z,92.51
2019-03-25T06:31:46.278Z,92.30
2019-03-25T06:32:46.233Z,93.45
2019-03-25T06:33:46.237Z,92.61
2019-03-25T06:34:46.227Z,92.30
2019-03-25T06:35:46.255Z,92.51
2019-03-25T06:36:46.197Z,93.14
2019-03-25T06:37:46.183Z,93.35
2019-03-25T06:38:46.156Z,92.41
2019-03-25T06:39:46.148Z,93.14
2019-03-25T06:40:46.142Z,93.45
2019-03-25T06:41:46.154Z,93.60
2019-03-25T06:42:46.183Z,93.39
2019-03-25T06:43:46.138Z,93.29
2019-03-25T06:44:46.103Z,93.39
2019-03-25T06:45:46.083Z,93.60
2019-03-25T06:46:46.098Z,93.29
2019-03-25T06:47:46.078Z,93.80
2019-03-25T06:48:46.050Z,93.39
2019-03-25T06:49:46.044Z,93.49
2019-03-25T06:50:46.049Z,93.80
2019-03-25T06:51:46.108Z,93.85
2019-03-25T06:52:46.321Z,93.54
2019-03-25T06:53:46.006Z,94.06
2019-03-25T06:54:45.993Z,93.85
2019-03-25T06:55:46.003Z,94.57
2019-03-25T06:56:45.971Z,94.68
2019-03-25T06:57:45.975Z,94.64
2019-03-25T06:58:45.995Z,93.91
2019-03-25T06:59:45.940Z,94.68
2019-03-25T07:00:45.961Z,94.64
2019-03-25T07:01:45.919Z,94.64
2019-03-25T07:02:45.914Z,94.84
2019-03-25T07:03:45.928Z,94.47
2019-03-25T07:04:45.891Z,94.43
2019-03-25T07:05:45.867Z,95.05
2019-03-25T07:06:45.861Z,94.84
2019-03-25T07:07:45.856Z,95.57
2019-03-25T07:08:45.856Z,94.74
2019-03-25T07:09:45.847Z,95.15
2019-03-25T07:10:45.828Z,93.91
2019-03-25T07:11:45.819Z,94.01
2019-03-25T07:12:45.800Z,94.07
2019-03-25T07:13:45.803Z,94.18
2019-03-25T07:14:45.830Z,94.01
2019-03-25T07:15:45.780Z,94.18
2019-03-25T07:16:45.792Z,93.66
2019-03-25T07:17:45.760Z,94.59
2019-03-25T07:18:45.744Z,94.24
2019-03-25T07:19:45.722Z,94.76
2019-03-25T07:20:45.747Z,94.13
2019-03-25T07:21:45.722Z,94.34
2019-03-25T07:22:45.688Z,93.72
2019-03-25T07:23:45.742Z,94.03
2019-03-25T07:24:45.682Z,93.62
2019-03-25T07:25:45.705Z,93.41
2019-03-25T07:26:45.663Z,93.10
2019-03-25T07:27:45.658Z,93.26
2019-03-25T07:28:45.630Z,93.05
2019-03-25T07:29:45.633Z,92.53
2019-03-25T07:30:45.626Z,92.11
2019-03-25T07:31:45.638Z,92.22
2019-03-25T07:32:45.612Z,93.05
2019-03-25T07:33:45.580Z,93.37
2019-03-25T07:34:45.575Z,92.49
2019-03-25T07:35:45.569Z,92.11
2019-03-25T07:36:45.556Z,92.07
2019-03-25T07:37:45.548Z,92.01
2019-03-25T07:38:45.548Z,92.28
2019-03-25T07:39:45.531Z,92.18
2019-03-25T07:40:45.572Z,92.49
2019-03-25T07:41:45.521Z,91.55
2019-03-25T07:42:45.488Z,91.76
2019-03-25T07:43:45.484Z,91.76
2019-03-25T07:44:45.476Z,91.76
2019-03-25T07:45:45.470Z,91.35
2019-03-25T07:46:45.450Z,91.10
2019-03-25T07:47:45.452Z,91.83
2019-03-25T07:48:45.450Z,91.31
2019-03-25T07:49:45.521Z,92.35
2019-03-25T07:50:45.420Z,91.52
2019-03-25T07:51:45.406Z,91.37
2019-03-25T07:52:45.421Z,91.58
2019-03-25T07:53:45.367Z,91.33
2019-03-25T07:54:45.372Z,90.39
2019-03-25T07:55:45.380Z,90.29
2019-03-25T07:56:45.366Z,90.50
2019-03-25T07:57:48.575Z,90.19
2019-03-25T07:58:45.374Z,90.91
2019-03-25T07:59:45.345Z,90.19
2019-03-25T08:00:45.301Z,90.19
2019-03-25T08:01:45.311Z,89.77
2019-03-25T08:02:45.302Z,89.87
2019-03-25T08:03:45.297Z,90.29
2019-03-25T08:04:45.270Z,89.98
2019-03-25T08:05:45.278Z,89.77
2019-03-25T08:06:45.248Z,89.46
2019-03-25T08:07:45.275Z,89.56
2019-03-25T08:08:45.285Z,89.46
2019-03-25T08:09:45.256Z,89.42
2019-03-25T08:10:45.213Z,89.21
2019-03-25T08:11:45.201Z,89.21
2019-03-25T08:12:45.185Z,88.45
2019-03-25T08:13:45.208Z,87.62
2019-03-25T08:14:45.156Z,87.88
2019-03-25T08:15:45.186Z,87.16
2019-03-25T08:16:46.285Z,86.44
2019-03-25T08:17:45.747Z,86.02
2019-03-25T08:18:45.178Z,86.33
2019-03-25T08:19:45.126Z,86.02
2019-03-25T08:20:45.133Z,85.78
2019-03-25T08:21:45.080Z,85.16
2019-03-25T08:22:45.082Z,85.47
2019-03-25T08:23:45.077Z,85.57
2019-03-25T08:24:45.760Z,85.68
2019-03-25T08:25:47.769Z,86.09
2019-03-25T08:26:45.137Z,86.19
2019-03-25T08:27:45.044Z,85.78
2019-03-25T08:28:45.042Z,85.57
2019-03-25T08:29:45.001Z,85.57
2019-03-25T08:30:45.018Z,86.19
2019-03-25T08:31:46.775Z,85.78
2019-03-25T08:32:44.981Z,85.47
2019-03-25T08:33:44.976Z,85.68
2019-03-25T08:34:44.985Z,86.13
2019-03-25T08:35:46.242Z,86.44
2019-03-25T08:36:45.086Z,86.13
2019-03-25T08:37:44.975Z,85.71
2019-03-25T08:38:44.946Z,85.82
2019-03-25T08:39:44.913Z,86.65
2019-03-25T08:40:44.881Z,86.44
2019-03-25T08:41:44.893Z,86.19
2019-03-25T08:42:44.869Z,86.40
2019-03-25T08:43:45.022Z,85.88
2019-03-25T08:44:44.855Z,85.53
2019-03-25T08:45:44.856Z,85.63
2019-03-25T08:46:44.921Z,84.29
2019-03-25T08:47:44.814Z,84.36
2019-03-25T08:48:44.813Z,83.11
2019-03-25T08:49:44.803Z,82.39
2019-03-25T08:50:44.773Z,82.90
2019-03-25T08:51:44.797Z,82.39
2019-03-25T08:52:44.749Z,82.90
2019-03-25T08:53:44.751Z,83.22
2019-03-25T08:54:44.730Z,83.25
2019-03-25T08:55:44.716Z,82.84
2019-03-25T08:56:44.733Z,82.74
2019-03-25T08:57:44.748Z,83.46
2019-03-25T08:58:44.876Z,83.98
2019-03-25T08:59:44.702Z,83.98
2019-03-25T09:00:46.231Z,83.84
2019-03-25T09:01:44.713Z,83.56
2019-03-25T09:02:44.669Z,83.67
2019-03-25T09:03:45.320Z,83.36
2019-03-25T09:04:44.650Z,83.46
2019-03-25T09:05:44.769Z,83.40
2019-03-25T09:06:44.625Z,83.81
2019-03-25T09:07:44.634Z,84.50
2019-03-25T09:08:48.688Z,83.67
2019-03-25T09:09:44.583Z,83.05
2019-03-25T09:10:44.560Z,82.95
2019-03-25T09:11:44.558Z,82.74
2019-03-25T09:12:44.583Z,82.32
2019-03-25T09:13:44.569Z,82.29
2019-03-25T09:14:44.538Z,82.18
2019-03-25T09:15:44.522Z,82.39
2019-03-25T09:16:44.504Z,82.39
2019-03-25T09:17:44.645Z,82.18
2019-03-25T09:18:44.481Z,82.08
2019-03-25T09:19:44.480Z,82.60
2019-03-25T09:20:45.834Z,83.11
2019-03-25T09:21:44.448Z,83.84
2019-03-25T09:22:53.333Z,83.32
2019-03-25T09:23:45.256Z,83.42
2019-03-25T09:24:44.461Z,82.18
2019-03-25T09:25:44.391Z,82.50
2019-03-25T09:26:44.378Z,82.15
2019-03-25T09:27:44.411Z,82.42
2019-03-25T09:28:44.375Z,82.83
2019-03-25T09:29:44.355Z,82.62
2019-03-25T09:30:44.385Z,82.07
2019-03-25T09:31:44.337Z,80.69
2019-03-25T09:32:44.399Z,80.48
2019-03-25T09:33:44.307Z,78.94
2019-03-25T09:34:44.297Z,79.00
2019-03-25T09:35:44.352Z,77.66
2019-03-25T09:36:44.322Z,77.04
2019-03-25T09:37:44.288Z,76.42
2019-03-25T09:38:44.264Z,74.33
2019-03-25T09:39:44.252Z,73.74
2019-03-25T09:40:44.238Z,75.81
2019-03-25T09:41:44.241Z,74.71
2019-03-25T09:42:44.226Z,75.39
2019-03-25T09:43:44.208Z,75.29
2019-03-25T09:44:44.223Z,75.29
2019-03-25T09:45:44.197Z,74.40
2019-03-25T09:46:44.178Z,75.46
2019-03-25T09:47:44.189Z,75.87
2019-03-25T09:48:44.148Z,77.11
2019-03-25T09:49:44.185Z,76.70
2019-03-25T09:50:44.146Z,77.63
2019-03-25T09:51:44.125Z,77.42
2019-03-25T09:52:44.156Z,77.63
2019-03-25T09:53:44.133Z,78.45
2019-03-25T09:54:44.110Z,75.98
2019-03-25T09:55:44.090Z,76.39
2019-03-25T09:56:44.090Z,76.56
2019-03-25T09:57:44.063Z,77.08
2019-03-25T09:58:44.049Z,76.98
2019-03-25T09:59:44.054Z,77.28
2019-03-25T10:00:44.042Z,77.04
2019-03-25T10:01:44.040Z,75.12
2019-03-25T10:02:44.006Z,75.60
2019-03-25T10:03:44.006Z,75.70
2019-03-25T10:04:44.061Z,75.26
2019-03-25T10:05:43.981Z,75.12
2019-03-25T10:06:44.016Z,74.19
2019-03-25T10:07:43.966Z,73.33
2019-03-25T10:08:43.948Z,72.16
2019-03-25T10:09:43.948Z,71.44
2019-03-25T10:10:43.932Z,71.75
2019-03-25T10:11:43.910Z,71.86
2019-03-25T10:12:43.924Z,72.06
2019-03-25T10:13:43.892Z,72.78
2019-03-25T10:14:43.894Z,71.86
2019-03-25T10:15:43.873Z,71.78
2019-03-25T10:16:43.863Z,72.51
2019-03-25T10:17:43.891Z,73.05
2019-03-25T10:18:43.858Z,74.60
2019-03-25T10:19:43.858Z,75.05
2019-03-25T10:20:43.857Z,73.09
2019-03-25T10:21:43.839Z,74.53
2019-03-25T10:22:43.820Z,74.12
2019-03-25T10:23:43.923Z,75.15
2019-03-25T10:24:43.781Z,76.08
2019-03-25T10:25:43.792Z,75.84
2019-03-25T10:26:43.784Z,75.32
2019-03-25T10:27:43.756Z,75.22
2019-03-25T10:28:48.778Z,73.78
2019-03-25T10:29:44.752Z,74.36
2019-03-25T10:30:43.752Z,73.30
2019-03-25T10:31:43.728Z,72.64
2019-03-25T10:32:43.721Z,71.41
2019-03-25T10:33:43.714Z,72.13
2019-03-25T10:34:43.672Z,71.20
2019-03-25T10:35:43.697Z,70.38
2019-03-25T10:36:43.675Z,69.97
2019-03-25T10:37:43.649Z,69.97
2019-03-25T10:38:43.650Z,69.73
2019-03-25T10:39:43.628Z,68.57
2019-03-25T10:40:43.620Z,68.61
2019-03-25T10:41:43.608Z,68.78
2019-03-25T10:42:43.613Z,68.44
2019-03-25T10:43:43.700Z,66.97
2019-03-25T10:44:43.575Z,66.30
2019-03-25T10:45:43.594Z,65.17
2019-03-25T10:46:43.600Z,64.86
2019-03-25T10:47:43.557Z,62.23
2019-03-25T10:48:43.554Z,62.40
2019-03-25T10:49:43.540Z,63.64
2019-03-25T10:50:43.537Z,62.27
2019-03-25T10:51:43.497Z,61.99
2019-03-25T10:52:43.492Z,62.81
2019-03-25T10:53:43.486Z,60.41
2019-03-25T10:54:43.605Z,60.51
2019-03-25T10:55:43.470Z,61.05
2019-03-25T10:56:49.086Z,61.77
2019-03-25T10:57:44.445Z,62.66
2019-03-25T10:58:43.429Z,60.72
2019-03-25T10:59:43.454Z,60.54
2019-03-25T11:00:43.418Z,60.23
2019-03-25T11:01:43.427Z,61.54
2019-03-25T11:02:43.415Z,60.33
2019-03-25T11:03:43.378Z,60.13
2019-03-25T11:04:43.411Z,61.57
2019-03-25T11:05:43.393Z,62.15
2019-03-25T11:06:43.364Z,62.05
2019-03-25T11:08:43.315Z,62.39
2019-03-25T11:09:43.315Z,62.31
2019-03-25T11:10:43.344Z,62.31
2019-03-25T11:11:43.288Z,60.49
2019-03-25T11:12:43.295Z,60.52
2019-03-25T11:13:43.280Z,61.86
2019-03-25T11:14:43.265Z,62.27
2019-03-25T11:15:43.273Z,62.58
2019-03-25T11:16:43.259Z,63.43
2019-03-25T11:17:43.239Z,62.40
2019-03-25T11:18:43.222Z,62.63
2019-03-25T11:19:43.243Z,63.76
2019-03-25T11:20:43.247Z,63.67
2019-03-25T11:21:43.234Z,65.55
2019-03-25T11:22:43.181Z,67.60
2019-03-25T11:23:43.187Z,70.07
2019-03-25T11:24:43.168Z,73.36
2019-03-25T11:25:43.159Z,73.68
2019-03-25T11:26:43.165Z,74.91
2019-03-25T11:27:43.157Z,72.88
2019-03-25T11:28:43.116Z,73.71
2019-03-25T11:29:43.142Z,73.26
2019-03-25T11:30:43.123Z,73.47
2019-03-25T11:31:43.069Z,73.09
2019-03-25T11:32:43.066Z,75.15
2019-03-25T11:33:43.054Z,75.53
2019-03-25T11:34:43.047Z,75.32
2019-03-25T11:35:43.039Z,75.22
2019-03-25T11:36:43.049Z,75.49
2019-03-25T11:37:43.027Z,76.11
2019-03-25T11:38:43.012Z,76.83
2019-03-25T11:39:43.035Z,77.35
2019-03-25T11:40:43.021Z,76.93
2019-03-25T11:41:42.983Z,76.49
2019-03-25T11:42:42.975Z,76.35
2019-03-25T11:43:42.956Z,75.42
2019-03-25T11:44:42.939Z,75.63
2019-03-25T11:45:42.923Z,73.23
2019-03-25T11:46:42.935Z,72.68
2019-03-25T11:47:42.932Z,71.51
2019-03-25T11:48:42.904Z,70.76
2019-03-25T11:49:44.503Z,70.32
2019-03-25T11:50:42.864Z,69.91
2019-03-25T11:51:42.890Z,70.32
2019-03-25T11:52:42.873Z,70.04
2019-03-25T11:53:42.911Z,69.94
2019-03-25T11:54:42.875Z,67.58
2019-03-25T11:55:42.831Z,68.19
2019-03-25T11:56:42.829Z,66.63
2019-03-25T11:57:42.844Z,64.34
2019-03-25T11:58:42.808Z,62.11
2019-03-25T11:59:42.800Z,62.11
2019-03-25T12:00:42.787Z,60.54
2019-03-25T12:01:42.769Z,61.98
2019-03-25T12:02:42.787Z,60.26
2019-03-25T12:03:42.767Z,61.77
2019-03-25T12:04:42.731Z,60.95
2019-03-25T12:05:42.725Z,61.33
2019-03-25T12:06:42.725Z,60.07
2019-03-25T12:07:42.691Z,58.40
2019-03-25T12:08:42.706Z,57.87
2019-03-25T12:09:42.694Z,57.84
2019-03-25T12:10:42.666Z,57.84
2019-03-25T12:11:42.637Z,56.41
2019-03-25T12:12:42.645Z,57.33
2019-03-25T12:13:42.627Z,56.71
2019-03-25T12:14:42.626Z,56.82
2019-03-25T12:15:42.617Z,56.84
2019-03-25T12:16:42.617Z,57.53
2019-03-25T12:17:42.591Z,57.35
2019-03-25T12:18:42.569Z,57.15
2019-03-25T12:19:42.612Z,58.04
2019-03-25T12:20:42.560Z,56.84
2019-03-25T12:21:42.547Z,57.48
2019-03-25T12:22:42.547Z,58.10
2019-03-25T12:23:42.525Z,57.95
2019-03-25T12:24:42.522Z,59.69
2019-03-25T12:25:42.541Z,60.23
2019-03-25T12:26:42.508Z,60.77
2019-03-25T12:27:42.491Z,61.18
2019-03-25T12:28:42.498Z,62.45
2019-03-25T12:29:42.691Z,63.91
2019-03-25T12:30:42.469Z,66.17
2019-03-25T12:31:42.452Z,68.05
2019-03-25T12:32:42.439Z,69.49
2019-03-25T12:33:42.418Z,68.57
2019-03-25T12:34:42.412Z,69.70
2019-03-25T12:35:42.452Z,66.53
2019-03-25T12:36:42.401Z,61.98
2019-03-25T12:37:42.370Z,61.76
2019-03-25T12:38:42.369Z,63.68
2019-03-25T12:39:42.353Z,60.14
2019-03-25T12:40:42.362Z,59.92
2019-03-25T12:41:42.336Z,57.75
2019-03-25T12:42:42.311Z,57.04
2019-03-25T12:43:42.302Z,58.09
2019-03-25T12:44:42.300Z,59.50
2019-03-25T12:45:42.309Z,61.61
2019-03-25T12:46:42.280Z,60.49
2019-03-25T12:47:42.269Z,58.65
2019-03-25T12:48:42.290Z,56.91
2019-03-25T12:49:42.255Z,51.43
2019-03-25T12:50:42.255Z,51.36
2019-03-25T12:51:42.241Z,50.35
2019-03-25T12:52:42.224Z,49.37
2019-03-25T12:53:42.220Z,48.66